Time;durP1;ratioP1;P1;durP2;ratioP2;P2;SDS_P1;SDS_P2;PMS_P1;PMS_P2;Temp;Humidity;BMP_temperature;BMP_pressure;BME280_temperature;BME280_humidity;BME280_pressure;Samples;Min_cycle;Max_cycle;Signal;HPM_P1;HPM_P2
2022/05/16 00:02:16;;;;;;;41.22;19.50;;;17.70;99.90;;;;;;4797833;29;20038;-90
2022/05/16 00:04:46;;;;;;;38.35;18.20;;;17.60;99.90;;;;;;4798796;29;20059;-92
2022/05/16 00:07:21;;;;;;;38.17;18.58;;;17.60;99.90;;;;;;4795434;29;20070;-94
2022/05/16 00:09:48;;;;;;;41.55;19.20;;;17.50;99.90;;;;;;4801402;29;20031;-90
2022/05/16 00:12:17;;;;;;;38.75;18.88;;;17.50;99.90;;;;;;4783334;29;20031;-90
2022/05/16 00:14:45;;;;;;;41.83;20.08;;;17.50;99.90;;;;;;4801310;29;20043;-91
2022/05/16 00:17:17;;;;;;;38.83;19.80;;;17.60;99.90;;;;;;4795731;29;20106;-91
2022/05/16 00:19:44;;;;;;;40.58;19.70;;;17.60;99.90;;;;;;4795427;29;20091;-90
2022/05/16 00:22:11;;;;;;;39.28;18.27;;;17.60;99.90;;;;;;4793755;29;20122;-89
2022/05/16 00:24:43;;;;;;;40.00;18.20;;;17.60;99.90;;;;;;4793852;29;20027;-89
2022/05/16 00:27:10;;;;;;;41.95;17.85;;;17.50;99.90;;;;;;4793625;29;20520;-90
2022/05/16 00:29:39;;;;;;;38.17;18.30;;;17.50;99.90;;;;;;4793738;29;20046;-91
2022/05/16 00:32:06;;;;;;;36.08;17.83;;;17.50;99.90;;;;;;4793987;29;20103;-90
2022/05/16 00:34:37;;;;;;;32.88;17.80;;;17.50;99.90;;;;;;4793646;29;20095;-90
2022/05/16 00:37:03;;;;;;;38.10;17.92;;;17.50;99.90;;;;;;4793476;29;20050;-89
2022/05/16 00:39:31;;;;;;;34.70;17.63;;;17.40;99.90;;;;;;4793608;29;20030;-89
2022/05/16 00:41:59;;;;;;;29.30;16.30;;;17.40;99.90;;;;;;4793420;29;20035;-89
2022/05/16 00:44:26;;;;;;;33.42;16.15;;;17.50;99.90;;;;;;4793475;29;20030;-90
2022/05/16 00:46:53;;;;;;;33.67;16.38;;;17.40;99.90;;;;;;4793361;29;20035;-89
2022/05/16 00:49:28;;;;;;;30.40;16.52;;;17.40;99.90;;;;;;4793447;29;20057;-89
2022/05/16 00:52:07;;;;;;;28.03;15.93;;;17.40;99.90;;;;;;4793507;29;20042;-89
2022/05/16 00:54:43;;;;;;;35.35;16.88;;;17.40;99.90;;;;;;4793434;29;20454;-90
2022/05/16 00:57:17;;;;;;;33.92;16.02;;;17.40;99.90;;;;;;4793146;29;20418;-89
2022/05/16 01:00:15;;;;;;;34.45;17.35;;;17.30;99.90;;;;;;4792299;29;20035;-89
2022/05/16 01:05:38;;;;;;;36.30;18.33;;;17.30;99.90;;;;;;4792964;29;20062;-89
2022/05/16 01:08:18;;;;;;;38.03;18.33;;;17.20;99.90;;;;;;4793321;29;20031;-90
2022/05/16 01:10:48;;;;;;;41.95;21.13;;;17.10;99.90;;;;;;4778120;29;20031;-90
2022/05/16 01:13:16;;;;;;;40.25;19.35;;;17.10;99.90;;;;;;4793121;29;20035;-90
2022/05/16 01:15:49;;;;;;;38.20;19.40;;;17.10;99.90;;;;;;4792855;29;20133;-90
2022/05/16 01:18:20;;;;;;;43.00;19.05;;;17.10;99.90;;;;;;4792978;29;20038;-90
2022/05/16 01:21:26;;;;;;;40.97;20.98;;;17.10;99.90;;;;;;4792823;29;20038;-90
2022/05/16 01:24:03;;;;;;;39.80;20.40;;;17.10;99.90;;;;;;4792626;29;20039;-91
2022/05/16 01:26:32;;;;;;;41.78;20.83;;;17.10;99.90;;;;;;4792685;29;20035;-90
2022/05/16 01:29:00;;;;;;;37.53;19.08;;;17.00;99.90;;;;;;4792687;29;20045;-90
2022/05/16 01:31:27;;;;;;;41.35;20.23;;;17.00;99.90;;;;;;4793236;29;20065;-90
2022/05/16 01:33:54;;;;;;;43.15;19.35;;;17.00;99.90;;;;;;4792603;29;20172;-91
2022/05/16 01:36:21;;;;;;;38.83;19.05;;;16.90;99.90;;;;;;4792460;29;20043;-89
2022/05/16 01:38:48;;;;;;;39.40;20.00;;;16.90;99.90;;;;;;4792740;29;20034;-90
2022/05/16 01:41:18;;;;;;;40.00;18.52;;;16.80;99.90;;;;;;4792526;29;20034;-90
2022/05/16 01:43:49;;;;;;;39.00;19.02;;;16.80;99.90;;;;;;4792672;29;20481;-90
2022/05/16 01:46:22;;;;;;;42.88;19.98;;;16.80;99.90;;;;;;4792387;29;20080;-90
2022/05/16 01:48:49;;;;;;;36.00;19.40;;;16.70;99.90;;;;;;4792465;29;20473;-89
2022/05/16 01:51:15;;;;;;;37.08;18.92;;;16.70;99.90;;;;;;4792294;29;20022;-90
2022/05/16 01:53:43;;;;;;;40.55;19.38;;;16.70;99.90;;;;;;4792203;29;20035;-89
2022/05/16 01:56:10;;;;;;;35.97;18.27;;;16.60;99.90;;;;;;4792153;29;20421;-89
2022/05/16 01:58:37;;;;;;;34.58;18.85;;;16.60;99.90;;;;;;4792290;29;20035;-89
2022/05/16 02:01:05;;;;;;;34.35;18.65;;;16.70;99.90;;;;;;4792077;29;20115;-90
2022/05/16 02:03:32;;;;;;;34.97;17.92;;;16.70;99.90;;;;;;4791925;29;20042;-90
2022/05/16 02:05:58;;;;;;;30.90;16.70;;;16.70;99.90;;;;;;4792076;29;20038;-90
2022/05/16 02:08:25;;;;;;;29.55;16.17;;;16.70;99.90;;;;;;4792083;29;20042;-90
2022/05/16 02:10:52;;;;;;;31.20;17.30;;;16.70;99.90;;;;;;4791919;29;20027;-90
2022/05/16 02:13:18;;;;;;;27.48;15.57;;;16.70;99.90;;;;;;4791854;29;20035;-90
2022/05/16 02:15:46;;;;;;;27.13;15.80;;;16.70;99.90;;;;;;4791675;29;20047;-89
2022/05/16 02:18:13;;;;;;;28.38;15.05;;;16.70;99.90;;;;;;4791954;29;20418;-92
2022/05/16 02:20:41;;;;;;;25.77;15.73;;;16.60;99.90;;;;;;4791801;29;20050;-90
2022/05/16 02:25:57;;;;;;;28.85;16.00;;;16.60;99.90;;;;;;4791774;29;20126;-91
2022/05/16 02:28:24;;;;;;;32.90;18.35;;;16.60;99.90;;;;;;4792000;29;20039;-90
2022/05/16 02:30:54;;;;;;;30.35;17.55;;;16.60;99.90;;;;;;4791765;29;20223;-90
2022/05/16 02:33:21;;;;;;;27.45;15.95;;;16.50;99.90;;;;;;4791663;29;20117;-89
2022/05/16 02:35:48;;;;;;;32.40;15.98;;;16.50;99.90;;;;;;4791350;29;20143;-89
2022/05/16 02:38:17;;;;;;;29.58;16.88;;;16.50;99.90;;;;;;4791400;29;20497;-90
2022/05/16 02:40:44;;;;;;;28.75;16.00;;;16.50;99.90;;;;;;4791468;29;20049;-90
2022/05/16 02:43:10;;;;;;;32.65;16.77;;;16.60;99.90;;;;;;4791529;29;20508;-90
2022/05/16 02:45:38;;;;;;;29.75;16.50;;;16.50;99.90;;;;;;4791353;29;20078;-89
2022/05/16 02:48:08;;;;;;;30.67;17.20;;;16.50;99.90;;;;;;4791600;29;20034;-91
2022/05/16 02:50:34;;;;;;;33.65;18.38;;;16.50;99.90;;;;;;4791453;29;20051;-89
2022/05/16 02:53:01;;;;;;;33.72;17.60;;;16.50;99.90;;;;;;4791392;29;20027;-89
2022/05/16 02:55:29;;;;;;;34.50;17.23;;;16.40;99.90;;;;;;4791546;29;20034;-89
2022/05/16 02:57:56;;;;;;;30.17;18.27;;;16.50;99.90;;;;;;4791209;29;20035;-90
2022/05/16 03:00:23;;;;;;;35.08;17.67;;;16.40;99.90;;;;;;4791219;29;20034;-89
2022/05/16 03:02:50;;;;;;;34.65;17.17;;;16.50;99.90;;;;;;4791447;29;20035;-89
2022/05/16 03:05:17;;;;;;;24.83;14.68;;;16.50;99.90;;;;;;4790961;29;20079;-89
2022/05/16 03:07:44;;;;;;;28.73;15.90;;;16.50;99.90;;;;;;4791330;29;20042;-90
2022/05/16 03:10:15;;;;;;;30.50;15.23;;;16.50;99.90;;;;;;4791306;29;20038;-91
2022/05/16 03:12:45;;;;;;;31.60;15.52;;;16.40;99.90;;;;;;4791124;29;20042;-91
2022/05/16 03:15:14;;;;;;;26.02;14.35;;;16.40;99.90;;;;;;4791000;29;20026;-91
2022/05/16 03:17:41;;;;;;;23.63;15.07;;;16.40;99.90;;;;;;4790955;29;20409;-90
2022/05/16 03:20:10;;;;;;;26.55;15.50;;;16.40;99.90;;;;;;4791349;29;20122;-91
2022/05/16 03:22:37;;;;;;;27.23;14.93;;;16.40;99.90;;;;;;4790834;29;20490;-89
2022/05/16 03:25:05;;;;;;;25.52;14.82;;;16.40;99.90;;;;;;4791016;29;20065;-91
2022/05/16 03:27:33;;;;;;;26.58;15.75;;;16.40;99.90;;;;;;4791301;29;20083;-92
2022/05/16 03:29:59;;;;;;;29.13;15.90;;;16.40;99.90;;;;;;4791187;29;20039;-90
2022/05/16 03:32:27;;;;;;;25.25;15.88;;;16.20;99.90;;;;;;4791082;29;20038;-91
2022/05/16 03:34:54;;;;;;;27.60;15.55;;;16.30;99.90;;;;;;4791611;29;20046;-92
2022/05/16 03:37:22;;;;;;;26.75;15.18;;;16.30;99.90;;;;;;4791005;29;20039;-92
2022/05/16 03:42:35;;;;;;;30.83;15.27;;;16.30;99.90;;;;;;4790853;29;20042;-90
2022/05/16 03:45:04;;;;;;;30.90;16.10;;;16.40;99.90;;;;;;4791026;29;20125;-91
2022/05/16 03:47:31;;;;;;;24.60;14.77;;;16.40;99.90;;;;;;4791089;29;20035;-90
2022/05/16 03:49:58;;;;;;;25.92;15.55;;;16.40;99.90;;;;;;4790942;29;20389;-90
2022/05/16 03:52:24;;;;;;;22.40;13.85;;;16.50;99.90;;;;;;4790705;29;20042;-90
2022/05/16 03:54:51;;;;;;;24.90;13.90;;;16.50;99.90;;;;;;4790802;29;20031;-90
2022/05/16 03:57:18;;;;;;;32.42;15.52;;;16.60;99.90;;;;;;4790587;29;20134;-92
2022/05/16 03:59:47;;;;;;;26.95;15.13;;;16.70;99.90;;;;;;4790637;29;20114;-93
2022/05/16 04:02:17;;;;;;;29.40;15.00;;;16.80;99.90;;;;;;4790688;29;20035;-89
2022/05/16 04:04:44;;;;;;;31.27;15.73;;;16.80;99.90;;;;;;4790532;29;20058;-90
2022/05/16 04:07:12;;;;;;;28.75;15.70;;;16.90;99.90;;;;;;4790847;29;20051;-90
2022/05/16 04:09:39;;;;;;;27.92;15.43;;;16.90;99.90;;;;;;4790723;29;20133;-92
2022/05/16 04:12:06;;;;;;;28.40;15.80;;;16.90;99.90;;;;;;4790350;29;20085;-90
2022/05/16 04:14:34;;;;;;;26.55;15.50;;;17.00;99.90;;;;;;4790636;29;20434;-91
2022/05/16 04:17:01;;;;;;;24.52;15.35;;;17.20;99.90;;;;;;4790683;29;20074;-90
2022/05/16 04:19:27;;;;;;;31.13;15.63;;;17.40;99.90;;;;;;4790478;29;20082;-90
2022/05/16 04:21:54;;;;;;;30.23;14.55;;;17.60;99.90;;;;;;4791045;29;20035;-90
2022/05/16 04:24:20;;;;;;;25.25;14.32;;;17.70;99.90;;;;;;4790401;29;20030;-91
2022/05/16 04:26:46;;;;;;;23.48;13.88;;;17.80;99.90;;;;;;4790551;29;20035;-90
2022/05/16 04:29:13;;;;;;;28.92;14.35;;;18.00;99.90;;;;;;4790571;29;20053;-91
2022/05/16 04:31:40;;;;;;;25.13;13.77;;;18.10;99.90;;;;;;4790420;29;20038;-91
2022/05/16 04:34:09;;;;;;;22.10;12.65;;;18.40;99.90;;;;;;4790718;29;20031;-91
2022/05/16 04:36:39;;;;;;;22.60;12.45;;;18.70;99.90;;;;;;4793579;29;20477;-91
2022/05/16 04:39:06;;;;;;;20.25;11.35;;;19.50;99.90;;;;;;4793493;29;20089;-91
2022/05/16 04:44:18;;;;;;;20.67;11.85;;;22.60;99.90;;;;;;4793585;29;20084;-91
2022/05/16 04:46:44;;;;;;;21.25;11.18;;;24.40;99.90;;;;;;4793752;29;20038;-92
2022/05/16 04:49:11;;;;;;;17.17;10.02;;;25.40;99.90;;;;;;4793424;29;20062;-91
2022/05/16 04:51:38;;;;;;;16.73;9.73;;;26.50;99.90;;;;;;4793301;29;20037;-91
2022/05/16 04:54:05;;;;;;;18.75;10.40;;;27.30;99.90;;;;;;4793319;29;20042;-91
2022/05/16 04:56:33;;;;;;;21.90;11.45;;;28.10;99.90;;;;;;4793110;29;20047;-91
2022/05/16 04:59:00;;;;;;;18.90;11.15;;;28.70;99.90;;;;;;4793203;29;20055;-92
2022/05/16 05:01:30;;;;;;;19.02;12.00;;;29.20;99.90;;;;;;4793390;29;20379;-92
2022/05/16 05:03:56;;;;;;;20.80;12.70;;;29.50;99.90;;;;;;4792972;29;20039;-91
2022/05/16 05:06:23;;;;;;;21.65;11.30;;;29.90;99.90;;;;;;4793284;29;20114;-92
2022/05/16 05:08:50;;;;;;;19.23;11.32;;;29.80;99.90;;;;;;4793734;29;20039;-93
2022/05/16 05:16:48;;;;;;;20.38;13.45;;;30.20;99.90;;;;;;4786450;30;20043;-93
2022/05/16 05:19:14;;;;;;;18.15;11.30;;;30.00;99.90;;;;;;4768543;30;20068;-91
2022/05/16 05:21:41;;;;;;;17.67;10.98;;;30.30;99.90;;;;;;4753883;30;20052;-91
2022/05/16 05:24:08;;;;;;;12.60;8.82;;;30.50;99.90;;;;;;4755945;30;20487;-90
2022/05/16 05:26:35;;;;;;;13.18;9.18;;;30.60;99.90;;;;;;4768852;30;20130;-92
2022/05/16 05:29:01;;;;;;;11.38;8.68;;;31.20;99.90;;;;;;4769315;30;20029;-92
2022/05/16 05:31:28;;;;;;;13.38;8.57;;;31.50;99.90;;;;;;4756226;30;20502;-92
2022/05/16 05:33:56;;;;;;;13.70;9.77;;;32.20;99.90;;;;;;4770912;30;20133;-91
2022/05/16 05:36:27;;;;;;;12.95;8.85;;;32.50;99.90;;;;;;4753935;30;20048;-93
2022/05/16 05:38:54;;;;;;;19.15;9.20;;;33.00;99.90;;;;;;4755855;30;20035;-92
2022/05/16 05:41:23;;;;;;;13.57;9.13;;;33.20;99.90;;;;;;4770798;30;20036;-93
2022/05/16 05:43:58;;;;;;;11.07;8.07;;;32.90;99.90;;;;;;4770890;30;20036;-92
2022/05/16 05:46:32;;;;;;;14.32;7.78;;;32.50;99.90;;;;;;4743995;30;20127;-93
2022/05/16 05:48:59;;;;;;;11.00;7.30;;;32.60;99.90;;;;;;4756295;30;20131;-92
2022/05/16 05:51:25;;;;;;;13.80;8.27;;;32.90;99.90;;;;;;4771280;30;20114;-92
2022/05/16 05:53:52;;;;;;;18.65;9.40;;;33.20;99.90;;;;;;4756363;30;20043;-93
2022/05/16 05:56:18;;;;;;;10.52;7.88;;;34.00;99.90;;;;;;4780935;29;20049;-95
2022/05/16 05:58:46;;;;;;;18.80;8.25;;;34.30;99.90;;;;;;4777746;29;20478;-94
2022/05/16 06:01:12;;;;;;;11.48;9.00;;;34.40;99.90;;;;;;4792746;29;20417;-91
2022/05/16 06:03:39;;;;;;;11.18;8.27;;;34.70;99.90;;;;;;4778634;29;20048;-93
2022/05/16 06:06:05;;;;;;;10.70;9.05;;;35.00;99.90;;;;;;4779246;29;20043;-92
2022/05/16 06:08:32;;;;;;;9.57;8.68;;;34.60;99.90;;;;;;4779221;29;20033;-92
2022/05/16 06:11:00;;;;;;;11.65;8.95;;;34.50;99.90;;;;;;4794350;29;20035;-92
2022/05/16 06:13:29;;;;;;;12.23;8.35;;;34.30;99.90;;;;;;4793374;29;20035;-92
2022/05/16 06:15:55;;;;;;;11.50;8.60;;;34.70;99.90;;;;;;4793493;29;20035;-91
2022/05/16 06:18:22;;;;;;;9.88;8.93;;;35.10;99.90;;;;;;4780345;29;20453;-92
2022/05/16 06:20:52;;;;;;;10.80;9.70;;;35.40;99.90;;;;;;4793415;29;20546;-91
2022/05/16 06:23:18;;;;;;;11.20;9.52;;;35.50;99.90;;;;;;4793090;29;20039;-90
2022/05/16 06:25:45;;;;;;;12.43;10.02;;;35.90;99.90;;;;;;4777471;29;20035;-91
2022/05/16 06:28:28;;;;;;;10.30;9.18;;;36.10;99.90;;;;;;4779568;29;20062;-91
2022/05/16 06:30:56;;;;;;;11.15;9.95;;;36.40;99.90;;;;;;4792441;29;20103;-92
2022/05/16 06:33:28;;;;;;;13.80;12.10;;;36.60;99.90;;;;;;4793173;29;20058;-90
2022/05/16 06:35:56;;;;;;;13.75;12.43;;;36.60;99.90;;;;;;4777372;29;20476;-92
2022/05/16 06:38:25;;;;;;;14.10;11.85;;;36.20;99.90;;;;;;4777712;29;20031;-91
2022/05/16 06:40:55;;;;;;;12.98;11.80;;;36.40;99.90;;;;;;4774390;30;20038;-92
2022/05/16 06:43:24;;;;;;;12.38;11.15;;;36.40;99.90;;;;;;4776302;30;20188;-91
2022/05/16 06:45:52;;;;;;;16.38;11.30;;;36.70;99.90;;;;;;4775186;30;20035;-92
2022/05/16 06:48:19;;;;;;;12.07;11.07;;;37.00;99.90;;;;;;4774960;30;20520;-92
2022/05/16 06:50:47;;;;;;;17.45;11.85;;;36.90;99.90;;;;;;4774596;30;20397;-92
2022/05/16 06:53:19;;;;;;;18.35;12.88;;;37.10;99.90;;;;;;4775270;30;20393;-92
2022/05/16 06:55:47;;;;;;;13.50;11.73;;;37.50;99.90;;;;;;4774889;30;20058;-93
2022/05/16 06:58:13;;;;;;;12.55;11.43;;;38.10;99.90;;;;;;4774879;30;20044;-92
2022/05/16 07:00:40;;;;;;;11.80;10.90;;;37.60;99.90;;;;;;4777245;30;20567;-92
2022/05/16 07:03:07;;;;;;;12.20;11.30;;;37.10;99.90;;;;;;4776651;30;20118;-92
2022/05/16 07:05:59;;;;;;;12.38;11.55;;;37.20;99.90;;;;;;4797809;30;20082;-91
2022/05/16 07:08:26;;;;;;;13.45;12.25;;;36.20;99.90;;;;;;4784088;30;20035;-90
2022/05/16 07:10:54;;;;;;;13.10;12.07;;;34.90;99.90;;;;;;4783286;30;20143;-93
2022/05/16 07:13:21;;;;;;;14.05;12.77;;;34.10;99.90;;;;;;4798074;30;20031;-92
2022/05/16 07:15:48;;;;;;;13.68;12.07;;;34.10;99.90;;;;;;4783819;30;20039;-91
2022/05/16 07:18:15;;;;;;;12.63;11.40;;;34.00;99.90;;;;;;4784095;30;20043;-93
2022/05/16 07:20:42;;;;;;;11.93;10.75;;;34.00;99.90;;;;;;4784359;30;20035;-91
2022/05/16 07:23:09;;;;;;;13.60;12.35;;;34.70;99.90;;;;;;4798497;30;20079;-93
2022/05/16 07:28:24;;;;;;;11.80;10.60;;;36.40;99.90;;;;;;4773163;30;20039;-93
2022/05/16 07:30:51;;;;;;;11.65;10.82;;;37.50;99.90;;;;;;4791965;30;20544;-90
2022/05/16 07:33:20;;;;;;;11.38;10.57;;;37.00;99.90;;;;;;4772663;30;20520;-90
2022/05/16 07:35:52;;;;;;;11.77;10.85;;;37.30;99.90;;;;;;4793850;30;20063;-93
2022/05/16 07:38:25;;;;;;;12.23;11.23;;;36.80;99.90;;;;;;4776266;30;20036;-93
2022/05/16 07:41:04;;;;;;;11.43;10.60;;;36.50;99.90;;;;;;4791629;30;20043;-94
2022/05/16 07:43:40;;;;;;;11.30;10.30;;;36.30;99.90;;;;;;4774444;30;20051;-94
2022/05/16 07:46:37;;;;;;;11.45;10.23;;;36.60;99.90;;;;;;4779598;30;20031;-93
2022/05/16 07:49:09;;;;;;;10.73;9.82;;;37.10;99.90;;;;;;4782269;30;20130;-92
2022/05/16 07:52:09;;;;;;;12.18;10.18;;;37.00;99.90;;;;;;4765869;30;20036;-94
2022/05/16 07:57:09;;;;;;;13.77;10.45;;;37.60;99.90;;;;;;4816147;29;20055;-94
2022/05/16 07:59:45;;;;;;;11.10;10.40;;;37.50;99.90;;;;;;4857826;24;20063;-94
2022/05/16 08:02:15;;;;;;;11.32;10.18;;;37.80;99.80;;;;;;4809214;29;20105;-93
2022/05/16 08:04:52;;;;;;;10.75;9.73;;;37.30;99.70;;;;;;4805967;24;20109;-93
2022/05/16 08:10:28;;;;;;;11.38;10.32;;;36.60;99.90;;;;;;4771286;30;20044;-93
2022/05/16 08:11:01;;;;;;;11.13;10.00;;;36.10;99.90;;;;;;4794733;30;20112;-92
2022/05/16 08:13:41;;;;;;;10.00;9.10;;;36.00;99.90;;;;;;4784591;30;20039;-94
2022/05/16 08:16:11;;;;;;;10.27;9.30;;;36.30;99.90;;;;;;4780723;30;20051;-93
2022/05/16 08:19:07;;;;;;;10.57;9.57;;;36.40;99.90;;;;;;4783534;30;20044;-94
2022/05/16 08:21:36;;;;;;;10.73;9.75;;;35.20;99.90;;;;;;4710311;30;20065;-92
2022/05/16 08:24:07;;;;;;;9.95;8.90;;;33.60;99.90;;;;;;4708601;30;20401;-92
2022/05/16 08:26:35;;;;;;;9.38;8.52;;;32.10;99.90;;;;;;4708790;30;20078;-93
2022/05/16 08:29:03;;;;;;;10.25;9.15;;;31.30;99.90;;;;;;4708597;30;20041;-91
2022/05/16 08:31:30;;;;;;;10.40;8.30;;;30.60;99.90;;;;;;4709709;30;20036;-92
2022/05/16 08:33:57;;;;;;;10.98;8.15;;;30.00;99.90;;;;;;4709998;30;20040;-93
2022/05/16 08:42:05;;;;;;;9.48;8.57;;;32.20;99.90;;;;;;4719249;30;20048;-92
2022/05/16 08:44:55;;;;;;;9.18;7.78;;;32.90;99.90;;;;;;4719267;30;20029;-91
2022/05/16 08:47:40;;;;;;;9.48;7.97;;;32.90;99.90;;;;;;4704673;30;20641;-93
2022/05/16 08:50:25;;;;;;;9.45;7.82;;;32.60;99.90;;;;;;4719323;30;20041;-93
2022/05/16 08:53:03;;;;;;;8.88;7.97;;;32.50;99.90;;;;;;4717153;30;20144;-91
2022/05/16 08:56:07;;;;;;;9.43;8.50;;;32.40;99.90;;;;;;4720241;30;20036;-91
2022/05/16 08:58:45;;;;;;;11.40;8.10;;;32.30;99.90;;;;;;4705770;30;20507;-92
2022/05/16 09:01:49;;;;;;;8.82;7.95;;;32.10;99.90;;;;;;4756663;30;20051;-91
2022/05/16 09:04:45;;;;;;;9.85;8.35;;;32.20;99.90;;;;;;4754947;30;20098;-91
2022/05/16 09:07:27;;;;;;;12.57;7.78;;;32.20;99.90;;;;;;4765387;30;20418;-93
2022/05/16 09:10:19;;;;;;;8.63;7.70;;;31.70;99.90;;;;;;4736504;30;20044;-92
2022/05/16 09:13:08;;;;;;;11.60;7.68;;;30.30;99.90;;;;;;4764378;30;20042;-92
2022/05/16 09:15:51;;;;;;;9.20;7.82;;;30.10;99.90;;;;;;4764907;30;20064;-92
2022/05/16 09:18:28;;;;;;;10.98;7.07;;;29.60;99.90;;;;;;4763047;30;20044;-92
2022/05/16 09:21:12;;;;;;;11.57;7.45;;;29.10;99.90;;;;;;4745797;30;20043;-91
2022/05/16 09:24:16;;;;;;;8.60;7.45;;;28.90;99.90;;;;;;4762947;30;20035;-92
2022/05/16 09:30:24;;;;;;;11.88;7.25;;;29.70;99.90;;;;;;4752763;30;20074;-93
2022/05/16 09:33:00;;;;;;;8.13;6.15;;;29.90;99.90;;;;;;4759070;30;20043;-92
2022/05/16 09:35:44;;;;;;;7.00;6.13;;;29.40;99.90;;;;;;4759153;30;20040;-92
2022/05/16 09:38:11;;;;;;;8.77;6.88;;;29.20;99.90;;;;;;4758249;30;20066;-93
2022/05/16 09:40:45;;;;;;;6.95;6.25;;;29.20;99.90;;;;;;4760322;30;20066;-91
2022/05/16 09:43:21;;;;;;;7.85;5.93;;;29.20;99.90;;;;;;4761866;30;20046;-93
2022/05/16 09:46:04;;;;;;;7.35;6.47;;;29.40;99.90;;;;;;4760952;30;20043;-92
2022/05/16 09:48:31;;;;;;;8.05;6.00;;;29.10;99.90;;;;;;4761765;30;20402;-92
2022/05/16 09:51:07;;;;;;;6.95;6.00;;;29.00;99.90;;;;;;4762554;30;20036;-92
2022/05/16 09:53:38;;;;;;;9.43;6.90;;;29.20;99.90;;;;;;4728113;30;20044;-90
2022/05/16 09:56:13;;;;;;;10.38;6.55;;;29.60;99.90;;;;;;4757481;30;20136;-91
2022/05/16 09:59:00;;;;;;;7.20;6.05;;;29.90;99.90;;;;;;4746753;30;20511;-90
2022/05/16 10:02:01;;;;;;;9.90;6.72;;;29.80;99.90;;;;;;4762108;30;20048;-90
2022/05/16 10:04:39;;;;;;;11.70;7.47;;;29.40;99.90;;;;;;4753857;30;20217;-90
2022/05/16 10:07:06;;;;;;;11.77;6.70;;;29.10;99.90;;;;;;4753644;30;20052;-91
2022/05/16 10:09:50;;;;;;;7.28;6.57;;;29.20;99.90;;;;;;4769880;30;20032;-91
2022/05/16 10:12:18;;;;;;;;;;;29.50;99.90;;;;;;4769508;30;20117;-93
2022/05/16 10:14:46;;;;;;;7.65;6.65;;;30.00;99.90;;;;;;4740100;30;19910;-93
2022/05/16 10:17:25;;;;;;;10.77;8.32;;;30.50;99.90;;;;;;4768862;30;20044;-91
2022/05/16 10:19:57;;;;;;;12.77;10.40;;;30.60;99.90;;;;;;4790825;30;20028;-92
2022/05/16 10:22:26;;;;;;;8.25;7.28;;;30.80;99.90;;;;;;4774322;30;20036;-92
2022/05/16 10:24:55;;;;;;;9.30;7.93;;;30.20;99.90;;;;;;4769852;30;20043;-92
2022/05/16 10:27:31;;;;;;;8.68;7.88;;;30.00;99.90;;;;;;4768153;30;20032;-92
2022/05/16 10:30:04;;;;;;;7.60;6.80;;;30.20;99.90;;;;;;4768120;30;20090;-93
2022/05/16 10:35:31;;;;;;;7.70;6.90;;;30.60;99.90;;;;;;4753362;30;20117;-93
2022/05/16 10:38:02;;;;;;;9.23;6.75;;;30.00;99.90;;;;;;4767828;30;20051;-91
2022/05/16 10:40:40;;;;;;;12.38;7.95;;;29.70;99.90;;;;;;4768020;30;20038;-91
2022/05/16 10:43:33;;;;;;;8.07;6.50;;;29.90;99.90;;;;;;4767875;30;20046;-93
2022/05/16 10:46:39;;;;;;;8.57;6.38;;;29.90;99.90;;;;;;4767872;30;20040;-90
2022/05/16 10:49:21;;;;;;;7.25;6.40;;;29.40;99.90;;;;;;4702678;30;20070;-93
2022/05/16 10:51:57;;;;;;;10.90;5.75;;;29.20;99.90;;;;;;4717320;30;20124;-91
2022/05/16 10:54:26;;;;;;;7.72;6.03;;;28.90;99.90;;;;;;4702634;30;20144;-91
2022/05/16 10:56:55;;;;;;;7.03;6.28;;;28.90;99.90;;;;;;4702401;30;20114;-92
2022/05/16 10:59:50;;;;;;;8.60;6.22;;;28.90;99.90;;;;;;4717662;30;20053;-92
2022/05/16 11:03:02;;;;;;;6.68;6.07;;;29.20;99.90;;;;;;4717362;30;20037;-93
2022/05/16 11:05:42;;;;;;;7.10;6.40;;;29.50;99.90;;;;;;4717102;30;20049;-90
2022/05/16 11:08:16;;;;;;;8.52;6.22;;;29.70;99.90;;;;;;4717841;30;20044;-93
2022/05/16 11:11:11;;;;;;;6.70;6.20;;;30.00;99.90;;;;;;4718278;30;20385;-93
2022/05/16 11:13:44;;;;;;;;;;;30.30;99.90;;;;;;4710586;30;20045;-93
2022/05/16 11:16:27;;;;;;;8.52;6.75;;;30.40;99.90;;;;;;4717828;30;19962;-91
2022/05/16 11:19:07;;;;;;;7.82;6.45;;;29.90;99.90;;;;;;4714847;30;20070;-92
2022/05/16 11:22:13;;;;;;;7.25;6.07;;;29.40;99.90;;;;;;4712444;30;20049;-92
2022/05/16 11:25:20;;;;;;;11.43;6.78;;;29.00;99.90;;;;;;4725742;30;20044;-92
2022/05/16 11:28:01;;;;;;;7.65;5.95;;;28.60;99.90;;;;;;4760433;30;20036;-93
2022/05/16 11:30:48;;;;;;;7.28;6.57;;;28.90;99.90;;;;;;4775341;30;20085;-93
2022/05/16 11:34:00;;;;;;;6.95;6.25;;;29.00;99.90;;;;;;4780524;30;20044;-92
2022/05/16 11:42:16;;;;;;;7.55;6.15;;;28.70;99.90;;;;;;4776288;30;20560;-93
2022/05/16 11:45:50;;;;;;;10.55;6.25;;;28.50;99.90;;;;;;4797032;24;20145;-93
2022/05/16 11:52:16;;;;;;;10.60;6.47;;;29.00;99.90;;;;;;4819154;24;20065;-94
2022/05/16 11:54:52;;;;;;;6.40;5.80;;;28.70;99.90;;;;;;4798114;30;20052;-94
2022/05/16 12:03:28;;;;;;;14.55;6.88;;;28.00;99.90;;;;;;4802466;29;20051;-92
2022/05/16 12:06:48;;;;;;;10.50;6.07;;;27.30;99.90;;;;;;4759725;30;20051;-92
2022/05/16 12:10:55;;;;;;;18.17;6.30;;;26.70;99.90;;;;;;4790729;30;20027;-92
2022/05/16 12:14:06;;;;;;;11.82;6.80;;;26.30;99.90;;;;;;5170587;24;20113;-94
2022/05/16 12:17:48;;;;;;;8.05;6.28;;;26.10;99.90;;;;;;4922499;24;21186;-91
2022/05/16 12:20:44;;;;;;;11.00;6.35;;;26.00;99.90;;;;;;4767802;30;20054;-91
2022/05/16 12:23:36;;;;;;;8.90;6.22;;;25.90;99.90;;;;;;4785421;30;20054;-92
2022/05/16 12:26:09;;;;;;;14.75;6.82;;;26.00;99.90;;;;;;4771537;30;20092;-92
2022/05/16 12:28:39;;;;;;;11.35;6.25;;;26.20;99.90;;;;;;4793525;30;20043;-91
2022/05/16 12:31:10;;;;;;;10.57;5.97;;;26.20;99.90;;;;;;4776267;30;20035;-92
2022/05/16 12:33:46;;;;;;;11.27;5.90;;;25.90;99.90;;;;;;4788846;30;20043;-91
2022/05/16 12:36:25;;;;;;;10.38;5.97;;;25.80;99.90;;;;;;4794481;30;20114;-90
2022/05/16 12:39:16;;;;;;;11.40;5.90;;;25.80;99.90;;;;;;4794755;30;20048;-92
2022/05/16 12:42:18;;;;;;;7.32;5.82;;;25.80;99.90;;;;;;4775184;30;20100;-93
2022/05/16 12:44:54;;;;;;;8.52;5.90;;;25.90;99.90;;;;;;4782348;30;20039;-92
2022/05/16 12:47:58;;;;;;;9.00;6.25;;;26.30;99.90;;;;;;4777920;30;20042;-91
2022/05/16 12:50:38;;;;;;;7.68;5.20;;;26.80;99.90;;;;;;4776421;30;20027;-92
2022/05/16 12:53:36;;;;;;;8.18;5.80;;;27.10;99.90;;;;;;4780061;30;20039;-93
2022/05/16 12:56:26;;;;;;;5.38;4.88;;;27.50;99.90;;;;;;4779258;30;20126;-92
2022/05/16 12:59:14;;;;;;;10.18;6.03;;;28.10;99.90;;;;;;4775625;30;20046;-91
2022/05/16 13:02:07;;;;;;;9.88;5.90;;;28.30;99.90;;;;;;4775667;30;20031;-89
2022/05/16 13:04:49;;;;;;;10.93;5.57;;;28.20;99.90;;;;;;4775858;30;20031;-92
2022/05/16 13:07:37;;;;;;;8.05;5.85;;;28.00;99.90;;;;;;4775479;30;20039;-90
2022/05/16 13:10:12;;;;;;;7.82;5.60;;;28.00;99.90;;;;;;4776991;30;20145;-91
2022/05/16 13:13:02;;;;;;;6.78;5.72;;;28.10;99.90;;;;;;4775371;30;20067;-90
2022/05/16 13:15:43;;;;;;;8.38;5.40;;;28.40;99.90;;;;;;4760481;30;20027;-93
2022/05/16 13:18:19;;;;;;;10.10;5.45;;;28.50;99.90;;;;;;4774966;30;20063;-91
2022/05/16 13:20:46;;;;;;;6.47;5.63;;;28.60;99.90;;;;;;4760908;30;20077;-90
2022/05/16 13:23:14;;;;;;;8.90;5.57;;;28.70;99.90;;;;;;4760607;30;20111;-92
2022/05/16 13:31:35;;;;;;;10.70;5.90;;;28.10;99.90;;;;;;4778264;30;20054;-94
2022/05/16 13:34:06;;;;;;;7.05;6.00;;;28.00;99.90;;;;;;4773747;30;20043;-92
2022/05/16 13:37:32;;;;;;;9.90;5.77;;;28.30;99.90;;;;;;4781984;30;20470;-92
2022/05/16 13:40:38;;;;;;;9.23;6.23;;;28.60;99.90;;;;;;4764744;30;20063;-93
2022/05/16 13:43:17;;;;;;;8.05;5.30;;;28.60;99.90;;;;;;4760419;30;20088;-93
2022/05/16 13:45:44;;;;;;;9.75;6.38;;;28.90;99.90;;;;;;4760866;30;20035;-92
2022/05/16 13:48:14;;;;;;;15.68;10.40;;;29.10;99.90;;;;;;4762169;30;20038;-93
2022/05/16 13:50:43;;;;;;;17.08;9.23;;;29.10;99.90;;;;;;4774722;30;20437;-92
2022/05/16 13:53:28;;;;;;;8.80;6.70;;;29.10;99.90;;;;;;4777735;30;20032;-93
2022/05/16 13:55:56;;;;;;;9.45;6.93;;;29.20;99.90;;;;;;4771519;30;20064;-91
2022/05/16 13:58:26;;;;;;;13.13;6.25;;;29.30;99.90;;;;;;4772653;24;20043;-92
2022/05/16 14:01:14;;;;;;;8.18;6.32;;;29.10;99.90;;;;;;4782495;29;20080;-94
2022/05/16 14:04:15;;;;;;;8.35;6.38;;;29.00;99.90;;;;;;4784709;29;20074;-95
2022/05/16 14:06:49;;;;;;;9.85;6.22;;;29.20;99.90;;;;;;4689840;30;20045;-94
2022/05/16 14:09:25;;;;;;;9.68;6.38;;;29.50;99.90;;;;;;4692085;30;20049;-91
2022/05/16 14:11:56;;;;;;;6.75;6.05;;;29.80;99.90;;;;;;4705099;30;20041;-95